sensor_id;sensor_type;location;lat;lon;timestamp;P1;durP1;ratioP1;P2;durP2;ratioP2
52508;SDS011;38420;53.150;6.370;2023-10-13T00:01:53;198.77;;;172.55;;
52508;SDS011;38420;53.150;6.370;2023-10-13T00:04:19;202.15;;;171.40;;
52508;SDS011;38420;53.150;6.370;2023-10-13T00:06:50;194.45;;;169.02;;
52508;SDS011;38420;53.150;6.370;2023-10-13T00:09:21;200.60;;;166.48;;
52508;SDS011;38420;53.150;6.370;2023-10-13T00:12:02;220.75;;;172.45;;
52508;SDS011;38420;53.150;6.370;2023-10-13T00:14:38;219.60;;;175.90;;
52508;SDS011;38420;53.150;6.370;2023-10-13T00:17:06;187.55;;;168.10;;
52508;SDS011;38420;53.150;6.370;2023-10-13T00:19:36;190.20;;;169.48;;
52508;SDS011;38420;53.150;6.370;2023-10-13T00:22:03;193.77;;;173.20;;
52508;SDS011;38420;53.150;6.370;2023-10-13T00:24:34;186.63;;;167.70;;
52508;SDS011;38420;53.150;6.370;2023-10-13T00:27:14;190.68;;;170.93;;
52508;SDS011;38420;53.150;6.370;2023-10-13T00:29:53;189.07;;;169.82;;
52508;SDS011;38420;53.150;6.370;2023-10-13T00:32:39;204.43;;;175.15;;
52508;SDS011;38420;53.150;6.370;2023-10-13T00:35:09;189.77;;;170.13;;
52508;SDS011;38420;53.150;6.370;2023-10-13T00:37:37;191.52;;;171.32;;
52508;SDS011;38420;53.150;6.370;2023-10-13T00:40:09;187.27;;;168.20;;
52508;SDS011;38420;53.150;6.370;2023-10-13T00:42:56;196.02;;;175.30;;
52508;SDS011;38420;53.150;6.370;2023-10-13T00:45:46;192.45;;;172.98;;
52508;SDS011;38420;53.150;6.370;2023-10-13T00:48:30;203.73;;;183.65;;
52508;SDS011;38420;53.150;6.370;2023-10-13T00:51:19;207.93;;;188.55;;
52508;SDS011;38420;53.150;6.370;2023-10-13T00:54:01;218.55;;;197.43;;
52508;SDS011;38420;53.150;6.370;2023-10-13T00:56:32;216.93;;;196.35;;
52508;SDS011;38420;53.150;6.370;2023-10-13T00:58:59;216.38;;;195.73;;
52508;SDS011;38420;53.150;6.370;2023-10-13T01:01:27;205.55;;;185.13;;
52508;SDS011;38420;53.150;6.370;2023-10-13T01:03:58;203.50;;;183.25;;
52508;SDS011;38420;53.150;6.370;2023-10-13T01:06:28;204.60;;;184.65;;
52508;SDS011;38420;53.150;6.370;2023-10-13T01:09:01;202.23;;;182.63;;
52508;SDS011;38420;53.150;6.370;2023-10-13T01:11:47;205.77;;;186.38;;
52508;SDS011;38420;53.150;6.370;2023-10-13T01:14:17;208.55;;;187.98;;
52508;SDS011;38420;53.150;6.370;2023-10-13T01:16:45;207.27;;;188.32;;
52508;SDS011;38420;53.150;6.370;2023-10-13T01:19:14;215.43;;;195.73;;
52508;SDS011;38420;53.150;6.370;2023-10-13T01:21:49;198.68;;;179.93;;
52508;SDS011;38420;53.150;6.370;2023-10-13T01:24:19;199.45;;;180.55;;
52508;SDS011;38420;53.150;6.370;2023-10-13T01:26:49;198.35;;;180.18;;
52508;SDS011;38420;53.150;6.370;2023-10-13T01:29:16;194.75;;;177.18;;
52508;SDS011;38420;53.150;6.370;2023-10-13T01:31:44;201.80;;;183.88;;
52508;SDS011;38420;53.150;6.370;2023-10-13T01:34:14;200.70;;;183.48;;
52508;SDS011;38420;53.150;6.370;2023-10-13T01:36:53;206.07;;;188.80;;
52508;SDS011;38420;53.150;6.370;2023-10-13T01:39:20;209.67;;;191.80;;
52508;SDS011;38420;53.150;6.370;2023-10-13T01:41:51;202.63;;;185.20;;
52508;SDS011;38420;53.150;6.370;2023-10-13T01:44:20;200.32;;;183.07;;
52508;SDS011;38420;53.150;6.370;2023-10-13T01:46:46;190.38;;;174.50;;
52508;SDS011;38420;53.150;6.370;2023-10-13T01:49:13;179.02;;;163.93;;
52508;SDS011;38420;53.150;6.370;2023-10-13T01:51:40;171.05;;;156.20;;
52508;SDS011;38420;53.150;6.370;2023-10-13T01:54:07;168.48;;;154.05;;
52508;SDS011;38420;53.150;6.370;2023-10-13T01:56:37;168.68;;;154.77;;
52508;SDS011;38420;53.150;6.370;2023-10-13T01:59:07;162.75;;;149.10;;
52508;SDS011;38420;53.150;6.370;2023-10-13T02:01:34;161.23;;;148.23;;
52508;SDS011;38420;53.150;6.370;2023-10-13T02:04:00;153.27;;;141.50;;
52508;SDS011;38420;53.150;6.370;2023-10-13T02:06:30;148.40;;;137.10;;
52508;SDS011;38420;53.150;6.370;2023-10-13T02:09:04;145.05;;;133.85;;
52508;SDS011;38420;53.150;6.370;2023-10-13T02:14:12;138.20;;;127.13;;
52508;SDS011;38420;53.150;6.370;2023-10-13T02:16:41;138.85;;;127.82;;
52508;SDS011;38420;53.150;6.370;2023-10-13T02:19:07;136.50;;;125.93;;
52508;SDS011;38420;53.150;6.370;2023-10-13T02:21:33;133.52;;;123.15;;
52508;SDS011;38420;53.150;6.370;2023-10-13T02:24:05;133.77;;;123.30;;
52508;SDS011;38420;53.150;6.370;2023-10-13T02:26:37;138.82;;;127.40;;
52508;SDS011;38420;53.150;6.370;2023-10-13T02:29:04;135.52;;;124.93;;
52508;SDS011;38420;53.150;6.370;2023-10-13T02:31:37;137.40;;;126.20;;
52508;SDS011;38420;53.150;6.370;2023-10-13T02:34:04;136.73;;;125.90;;
52508;SDS011;38420;53.150;6.370;2023-10-13T02:36:36;136.32;;;125.50;;
52508;SDS011;38420;53.150;6.370;2023-10-13T02:39:05;135.90;;;125.85;;
52508;SDS011;38420;53.150;6.370;2023-10-13T02:41:34;137.02;;;126.97;;
52508;SDS011;38420;53.150;6.370;2023-10-13T02:44:04;141.50;;;131.02;;
52508;SDS011;38420;53.150;6.370;2023-10-13T02:46:31;146.55;;;135.45;;
52508;SDS011;38420;53.150;6.370;2023-10-13T02:49:00;144.02;;;133.30;;
52508;SDS011;38420;53.150;6.370;2023-10-13T02:51:34;146.68;;;135.20;;
52508;SDS011;38420;53.150;6.370;2023-10-13T02:54:00;150.40;;;137.77;;
52508;SDS011;38420;53.150;6.370;2023-10-13T02:56:45;152.20;;;139.82;;
52508;SDS011;38420;53.150;6.370;2023-10-13T02:59:21;159.70;;;145.93;;
52508;SDS011;38420;53.150;6.370;2023-10-13T03:02:04;156.35;;;143.60;;
52508;SDS011;38420;53.150;6.370;2023-10-13T03:04:48;161.13;;;147.48;;
52508;SDS011;38420;53.150;6.370;2023-10-13T03:07:24;160.55;;;146.75;;
52508;SDS011;38420;53.150;6.370;2023-10-13T03:09:53;160.73;;;146.50;;
52508;SDS011;38420;53.150;6.370;2023-10-13T03:12:24;157.85;;;144.13;;
52508;SDS011;38420;53.150;6.370;2023-10-13T03:14:50;160.75;;;146.63;;
52508;SDS011;38420;53.150;6.370;2023-10-13T03:17:22;160.55;;;146.48;;
52508;SDS011;38420;53.150;6.370;2023-10-13T03:19:58;161.27;;;146.75;;
52508;SDS011;38420;53.150;6.370;2023-10-13T03:22:24;158.70;;;144.52;;
52508;SDS011;38420;53.150;6.370;2023-10-13T03:25:00;155.02;;;141.60;;
52508;SDS011;38420;53.150;6.370;2023-10-13T03:27:34;155.43;;;142.10;;
52508;SDS011;38420;53.150;6.370;2023-10-13T03:30:19;151.85;;;139.43;;
52508;SDS011;38420;53.150;6.370;2023-10-13T03:32:55;150.00;;;137.98;;
52508;SDS011;38420;53.150;6.370;2023-10-13T03:35:21;148.70;;;137.02;;
52508;SDS011;38420;53.150;6.370;2023-10-13T03:37:52;147.77;;;136.27;;
52508;SDS011;38420;53.150;6.370;2023-10-13T03:40:18;156.07;;;144.40;;
52508;SDS011;38420;53.150;6.370;2023-10-13T03:42:47;149.40;;;138.30;;
52508;SDS011;38420;53.150;6.370;2023-10-13T03:45:44;148.25;;;136.85;;
52508;SDS011;38420;53.150;6.370;2023-10-13T03:50:54;137.75;;;127.72;;
52508;SDS011;38420;53.150;6.370;2023-10-13T03:53:40;138.35;;;128.13;;
52508;SDS011;38420;53.150;6.370;2023-10-13T03:56:19;141.73;;;131.30;;
52508;SDS011;38420;53.150;6.370;2023-10-13T03:58:54;143.75;;;132.88;;
52508;SDS011;38420;53.150;6.370;2023-10-13T04:01:31;142.73;;;131.82;;
52508;SDS011;38420;53.150;6.370;2023-10-13T04:04:12;147.63;;;136.25;;
52508;SDS011;38420;53.150;6.370;2023-10-13T04:06:43;148.30;;;136.98;;
52508;SDS011;38420;53.150;6.370;2023-10-13T04:09:15;148.45;;;136.95;;
52508;SDS011;38420;53.150;6.370;2023-10-13T04:14:39;152.27;;;140.10;;
52508;SDS011;38420;53.150;6.370;2023-10-13T04:17:32;152.30;;;140.38;;
52508;SDS011;38420;53.150;6.370;2023-10-13T04:20:05;152.82;;;140.35;;
52508;SDS011;38420;53.150;6.370;2023-10-13T04:22:34;153.32;;;140.95;;
52508;SDS011;38420;53.150;6.370;2023-10-13T04:27:58;155.45;;;142.30;;
52508;SDS011;38420;53.150;6.370;2023-10-13T04:30:42;150.57;;;138.50;;
52508;SDS011;38420;53.150;6.370;2023-10-13T04:33:17;146.82;;;134.48;;
52508;SDS011;38420;53.150;6.370;2023-10-13T04:38:49;147.05;;;134.85;;
52508;SDS011;38420;53.150;6.370;2023-10-13T04:43:59;146.90;;;135.68;;
52508;SDS011;38420;53.150;6.370;2023-10-13T04:46:44;147.15;;;135.48;;
52508;SDS011;38420;53.150;6.370;2023-10-13T04:49:12;141.88;;;130.80;;
52508;SDS011;38420;53.150;6.370;2023-10-13T04:51:54;146.73;;;134.70;;
52508;SDS011;38420;53.150;6.370;2023-10-13T04:54:24;146.27;;;134.45;;
52508;SDS011;38420;53.150;6.370;2023-10-13T04:56:51;144.15;;;132.75;;
52508;SDS011;38420;53.150;6.370;2023-10-13T04:59:36;145.73;;;133.98;;
52508;SDS011;38420;53.150;6.370;2023-10-13T05:02:20;145.18;;;133.15;;
52508;SDS011;38420;53.150;6.370;2023-10-13T05:05:07;144.77;;;133.45;;
52508;SDS011;38420;53.150;6.370;2023-10-13T05:07:42;148.52;;;136.45;;
52508;SDS011;38420;53.150;6.370;2023-10-13T05:10:27;148.32;;;136.77;;
52508;SDS011;38420;53.150;6.370;2023-10-13T05:13:12;146.15;;;134.60;;
52508;SDS011;38420;53.150;6.370;2023-10-13T05:15:56;137.73;;;127.18;;
52508;SDS011;38420;53.150;6.370;2023-10-13T05:18:40;138.43;;;127.90;;
52508;SDS011;38420;53.150;6.370;2023-10-13T05:21:24;136.65;;;126.28;;
52508;SDS011;38420;53.150;6.370;2023-10-13T05:24:08;133.50;;;123.25;;
52508;SDS011;38420;53.150;6.370;2023-10-13T05:26:53;136.63;;;126.18;;
52508;SDS011;38420;53.150;6.370;2023-10-13T05:29:40;131.30;;;121.80;;
52508;SDS011;38420;53.150;6.370;2023-10-13T05:32:26;130.18;;;120.68;;
52508;SDS011;38420;53.150;6.370;2023-10-13T05:35:11;119.00;;;110.78;;
52508;SDS011;38420;53.150;6.370;2023-10-13T05:37:55;117.93;;;109.85;;
52508;SDS011;38420;53.150;6.370;2023-10-13T05:40:50;115.25;;;107.40;;
52508;SDS011;38420;53.150;6.370;2023-10-13T05:43:39;113.57;;;105.78;;
52508;SDS011;38420;53.150;6.370;2023-10-13T05:46:24;115.43;;;107.68;;
52508;SDS011;38420;53.150;6.370;2023-10-13T05:48:53;114.07;;;106.35;;
52508;SDS011;38420;53.150;6.370;2023-10-13T05:54:01;112.30;;;104.78;;
52508;SDS011;38420;53.150;6.370;2023-10-13T05:56:49;117.47;;;109.43;;
52508;SDS011;38420;53.150;6.370;2023-10-13T05:59:37;116.15;;;108.30;;
52508;SDS011;38420;53.150;6.370;2023-10-13T06:02:23;118.75;;;110.32;;
52508;SDS011;38420;53.150;6.370;2023-10-13T06:05:08;118.30;;;110.30;;
52508;SDS011;38420;53.150;6.370;2023-10-13T06:07:53;121.18;;;113.05;;
52508;SDS011;38420;53.150;6.370;2023-10-13T06:10:38;123.53;;;114.72;;
52508;SDS011;38420;53.150;6.370;2023-10-13T06:13:22;121.20;;;112.95;;
52508;SDS011;38420;53.150;6.370;2023-10-13T06:18:55;122.28;;;113.45;;
52508;SDS011;38420;53.150;6.370;2023-10-13T06:21:39;121.78;;;112.85;;
52508;SDS011;38420;53.150;6.370;2023-10-13T06:24:24;125.90;;;116.93;;
52508;SDS011;38420;53.150;6.370;2023-10-13T06:27:09;126.07;;;117.43;;
52508;SDS011;38420;53.150;6.370;2023-10-13T06:29:53;133.00;;;123.75;;
52508;SDS011;38420;53.150;6.370;2023-10-13T06:32:19;131.43;;;122.35;;
52508;SDS011;38420;53.150;6.370;2023-10-13T06:34:45;133.32;;;123.95;;
52508;SDS011;38420;53.150;6.370;2023-10-13T06:37:12;135.85;;;126.38;;
52508;SDS011;38420;53.150;6.370;2023-10-13T06:39:55;140.80;;;131.07;;
52508;SDS011;38420;53.150;6.370;2023-10-13T06:42:25;145.00;;;134.85;;
52508;SDS011;38420;53.150;6.370;2023-10-13T06:44:55;154.80;;;144.20;;
52508;SDS011;38420;53.150;6.370;2023-10-13T06:47:21;157.88;;;146.77;;
52508;SDS011;38420;53.150;6.370;2023-10-13T06:49:47;172.35;;;160.63;;
52508;SDS011;38420;53.150;6.370;2023-10-13T06:52:16;182.35;;;170.13;;
52508;SDS011;38420;53.150;6.370;2023-10-13T06:54:44;185.25;;;172.98;;
52508;SDS011;38420;53.150;6.370;2023-10-13T06:57:11;194.80;;;182.02;;
52508;SDS011;38420;53.150;6.370;2023-10-13T06:59:45;183.57;;;171.27;;
52508;SDS011;38420;53.150;6.370;2023-10-13T07:02:11;172.52;;;161.00;;
52508;SDS011;38420;53.150;6.370;2023-10-13T07:04:46;154.90;;;144.30;;
52508;SDS011;38420;53.150;6.370;2023-10-13T07:07:25;140.82;;;131.13;;
52508;SDS011;38420;53.150;6.370;2023-10-13T07:09:50;129.98;;;120.53;;
52508;SDS011;38420;53.150;6.370;2023-10-13T07:12:23;116.60;;;108.68;;
52508;SDS011;38420;53.150;6.370;2023-10-13T07:14:51;99.00;;;92.88;;
52508;SDS011;38420;53.150;6.370;2023-10-13T07:17:17;91.40;;;85.38;;
52508;SDS011;38420;53.150;6.370;2023-10-13T07:19:53;85.93;;;80.55;;
52508;SDS011;38420;53.150;6.370;2023-10-13T07:22:19;77.95;;;73.22;;
52508;SDS011;38420;53.150;6.370;2023-10-13T07:24:49;71.85;;;67.25;;
52508;SDS011;38420;53.150;6.370;2023-10-13T07:27:22;67.77;;;63.67;;
52508;SDS011;38420;53.150;6.370;2023-10-13T07:29:51;61.55;;;57.75;;
52508;SDS011;38420;53.150;6.370;2023-10-13T07:32:30;61.03;;;57.20;;
52508;SDS011;38420;53.150;6.370;2023-10-13T07:34:59;58.05;;;54.78;;
52508;SDS011;38420;53.150;6.370;2023-10-13T07:37:33;52.13;;;48.42;;
52508;SDS011;38420;53.150;6.370;2023-10-13T07:40:00;51.13;;;48.00;;
52508;SDS011;38420;53.150;6.370;2023-10-13T07:42:26;50.40;;;46.92;;
52508;SDS011;38420;53.150;6.370;2023-10-13T07:45:04;48.55;;;45.50;;
52508;SDS011;38420;53.150;6.370;2023-10-13T07:47:30;46.63;;;43.67;;
52508;SDS011;38420;53.150;6.370;2023-10-13T07:49:58;45.88;;;42.53;;
52508;SDS011;38420;53.150;6.370;2023-10-13T07:52:24;46.65;;;43.55;;
52508;SDS011;38420;53.150;6.370;2023-10-13T07:54:51;52.17;;;48.65;;
52508;SDS011;38420;53.150;6.370;2023-10-13T07:57:38;53.03;;;49.78;;
52508;SDS011;38420;53.150;6.370;2023-10-13T08:00:20;55.15;;;51.60;;
52508;SDS011;38420;53.150;6.370;2023-10-13T08:03:03;60.80;;;56.72;;
52508;SDS011;38420;53.150;6.370;2023-10-13T08:05:44;66.03;;;61.55;;
52508;SDS011;38420;53.150;6.370;2023-10-13T08:08:32;69.83;;;65.23;;
52508;SDS011;38420;53.150;6.370;2023-10-13T08:11:07;75.88;;;70.95;;
52508;SDS011;38420;53.150;6.370;2023-10-13T08:13:55;79.60;;;74.18;;
52508;SDS011;38420;53.150;6.370;2023-10-13T08:16:25;82.93;;;77.38;;
52508;SDS011;38420;53.150;6.370;2023-10-13T08:19:12;85.38;;;79.63;;
52508;SDS011;38420;53.150;6.370;2023-10-13T08:21:42;85.80;;;80.37;;
52508;SDS011;38420;53.150;6.370;2023-10-13T08:24:17;87.38;;;81.22;;
52508;SDS011;38420;53.150;6.370;2023-10-13T08:27:02;90.13;;;84.35;;
52508;SDS011;38420;53.150;6.370;2023-10-13T08:29:28;87.63;;;81.18;;
52508;SDS011;38420;53.150;6.370;2023-10-13T08:31:53;87.97;;;82.18;;
52508;SDS011;38420;53.150;6.370;2023-10-13T08:34:38;86.88;;;80.95;;
52508;SDS011;38420;53.150;6.370;2023-10-13T08:37:05;85.00;;;79.32;;
52508;SDS011;38420;53.150;6.370;2023-10-13T08:39:46;86.38;;;80.80;;
52508;SDS011;38420;53.150;6.370;2023-10-13T08:42:28;93.85;;;87.28;;
52508;SDS011;38420;53.150;6.370;2023-10-13T08:45:14;93.47;;;87.28;;
52508;SDS011;38420;53.150;6.370;2023-10-13T08:47:53;89.03;;;83.40;;
52508;SDS011;38420;53.150;6.370;2023-10-13T08:50:36;96.18;;;89.65;;
52508;SDS011;38420;53.150;6.370;2023-10-13T08:53:31;89.68;;;83.38;;
52508;SDS011;38420;53.150;6.370;2023-10-13T08:56:11;90.38;;;83.85;;
52508;SDS011;38420;53.150;6.370;2023-10-13T08:58:47;92.07;;;84.97;;
52508;SDS011;38420;53.150;6.370;2023-10-13T09:01:20;100.13;;;93.13;;
52508;SDS011;38420;53.150;6.370;2023-10-13T09:04:04;97.57;;;90.30;;
52508;SDS011;38420;53.150;6.370;2023-10-13T09:09:30;99.57;;;92.72;;
52508;SDS011;38420;53.150;6.370;2023-10-13T09:12:01;98.33;;;91.43;;
52508;SDS011;38420;53.150;6.370;2023-10-13T09:14:37;94.30;;;87.68;;
52508;SDS011;38420;53.150;6.370;2023-10-13T09:17:08;94.95;;;88.13;;
52508;SDS011;38420;53.150;6.370;2023-10-13T09:19:54;89.30;;;82.78;;
52508;SDS011;38420;53.150;6.370;2023-10-13T09:22:23;85.53;;;79.40;;
52508;SDS011;38420;53.150;6.370;2023-10-13T09:25:00;80.00;;;74.55;;
52508;SDS011;38420;53.150;6.370;2023-10-13T09:27:27;74.97;;;70.13;;
52508;SDS011;38420;53.150;6.370;2023-10-13T09:29:57;69.70;;;64.65;;
52508;SDS011;38420;53.150;6.370;2023-10-13T09:32:35;65.18;;;60.83;;
52508;SDS011;38420;53.150;6.370;2023-10-13T09:35:17;58.30;;;54.33;;
52508;SDS011;38420;53.150;6.370;2023-10-13T09:37:44;57.67;;;53.78;;
52508;SDS011;38420;53.150;6.370;2023-10-13T09:40:12;49.47;;;46.03;;
52508;SDS011;38420;53.150;6.370;2023-10-13T09:42:59;36.10;;;33.30;;
52508;SDS011;38420;53.150;6.370;2023-10-13T09:45:40;28.95;;;26.40;;
52508;SDS011;38420;53.150;6.370;2023-10-13T09:48:22;32.15;;;28.88;;
52508;SDS011;38420;53.150;6.370;2023-10-13T09:50:57;23.92;;;21.80;;
52508;SDS011;38420;53.150;6.370;2023-10-13T09:53:33;18.73;;;16.77;;
52508;SDS011;38420;53.150;6.370;2023-10-13T09:56:07;17.77;;;16.05;;
52508;SDS011;38420;53.150;6.370;2023-10-13T10:01:19;15.95;;;9.30;;
52508;SDS011;38420;53.150;6.370;2023-10-13T10:04:08;16.35;;;8.63;;
52508;SDS011;38420;53.150;6.370;2023-10-13T10:06:38;13.70;;;7.78;;
52508;SDS011;38420;53.150;6.370;2023-10-13T10:09:09;16.85;;;7.18;;
52508;SDS011;38420;53.150;6.370;2023-10-13T10:17:37;13.90;;;6.72;;
52508;SDS011;38420;53.150;6.370;2023-10-13T10:20:05;15.90;;;6.65;;
52508;SDS011;38420;53.150;6.370;2023-10-13T10:22:39;16.50;;;6.28;;
52508;SDS011;38420;53.150;6.370;2023-10-13T10:25:11;11.93;;;5.93;;
52508;SDS011;38420;53.150;6.370;2023-10-13T10:27:59;15.18;;;5.97;;
52508;SDS011;38420;53.150;6.370;2023-10-13T10:30:32;18.58;;;6.32;;
52508;SDS011;38420;53.150;6.370;2023-10-13T10:33:00;13.82;;;5.82;;
52508;SDS011;38420;53.150;6.370;2023-10-13T10:35:32;19.83;;;6.35;;
52508;SDS011;38420;53.150;6.370;2023-10-13T10:38:11;13.05;;;6.00;;
52508;SDS011;38420;53.150;6.370;2023-10-13T10:40:49;19.40;;;7.38;;
52508;SDS011;38420;53.150;6.370;2023-10-13T10:43:26;14.55;;;5.82;;
52508;SDS011;38420;53.150;6.370;2023-10-13T10:45:54;16.13;;;5.88;;
52508;SDS011;38420;53.150;6.370;2023-10-13T10:48:24;15.07;;;6.25;;
52508;SDS011;38420;53.150;6.370;2023-10-13T10:50:56;16.13;;;6.25;;
52508;SDS011;38420;53.150;6.370;2023-10-13T10:53:24;19.17;;;6.72;;
52508;SDS011;38420;53.150;6.370;2023-10-13T10:56:04;12.15;;;5.43;;
52508;SDS011;38420;53.150;6.370;2023-10-13T10:58:48;18.77;;;6.03;;
52508;SDS011;38420;53.150;6.370;2023-10-13T11:01:20;13.90;;;5.78;;
52508;SDS011;38420;53.150;6.370;2023-10-13T11:03:59;11.27;;;5.50;;
52508;SDS011;38420;53.150;6.370;2023-10-13T11:06:55;18.90;;;5.95;;
52508;SDS011;38420;53.150;6.370;2023-10-13T11:11:56;13.57;;;5.63;;
52508;SDS011;38420;53.150;6.370;2023-10-13T11:14:31;17.50;;;5.85;;
52508;SDS011;38420;53.150;6.370;2023-10-13T11:16:58;22.05;;;5.90;;
52508;SDS011;38420;53.150;6.370;2023-10-13T11:19:39;12.38;;;5.88;;
52508;SDS011;38420;53.150;6.370;2023-10-13T11:22:24;13.63;;;6.57;;
52508;SDS011;38420;53.150;6.370;2023-10-13T11:25:05;14.05;;;6.10;;
52508;SDS011;38420;53.150;6.370;2023-10-13T11:27:40;16.65;;;6.40;;
52508;SDS011;38420;53.150;6.370;2023-10-13T11:30:13;18.08;;;6.03;;
52508;SDS011;38420;53.150;6.370;2023-10-13T11:32:42;14.32;;;5.32;;
52508;SDS011;38420;53.150;6.370;2023-10-13T11:35:09;17.73;;;6.03;;
52508;SDS011;38420;53.150;6.370;2023-10-13T11:37:54;18.33;;;6.82;;
52508;SDS011;38420;53.150;6.370;2023-10-13T11:40:28;15.60;;;5.53;;
52508;SDS011;38420;53.150;6.370;2023-10-13T11:43:30;18.85;;;6.05;;
52508;SDS011;38420;53.150;6.370;2023-10-13T11:46:00;17.13;;;7.40;;
52508;SDS011;38420;53.150;6.370;2023-10-13T11:48:35;15.73;;;7.22;;
52508;SDS011;38420;53.150;6.370;2023-10-13T11:51:04;19.52;;;7.28;;
52508;SDS011;38420;53.150;6.370;2023-10-13T11:53:42;16.55;;;6.50;;
52508;SDS011;38420;53.150;6.370;2023-10-13T11:56:08;14.73;;;6.13;;
52508;SDS011;38420;53.150;6.370;2023-10-13T11:58:38;21.63;;;8.05;;
52508;SDS011;38420;53.150;6.370;2023-10-13T12:01:04;14.52;;;6.68;;
52508;SDS011;38420;53.150;6.370;2023-10-13T12:03:33;17.20;;;7.18;;
52508;SDS011;38420;53.150;6.370;2023-10-13T12:06:17;14.98;;;6.55;;
52508;SDS011;38420;53.150;6.370;2023-10-13T12:09:05;17.10;;;7.00;;
52508;SDS011;38420;53.150;6.370;2023-10-13T12:11:44;16.58;;;6.88;;
52508;SDS011;38420;53.150;6.370;2023-10-13T12:14:14;15.57;;;6.68;;
52508;SDS011;38420;53.150;6.370;2023-10-13T12:16:46;16.88;;;6.35;;
52508;SDS011;38420;53.150;6.370;2023-10-13T12:19:21;18.75;;;6.95;;
52508;SDS011;38420;53.150;6.370;2023-10-13T12:21:55;15.10;;;6.75;;
52508;SDS011;38420;53.150;6.370;2023-10-13T12:24:31;19.63;;;6.47;;
52508;SDS011;38420;53.150;6.370;2023-10-13T12:26:59;18.38;;;6.72;;
52508;SDS011;38420;53.150;6.370;2023-10-13T12:29:26;14.35;;;6.43;;
52508;SDS011;38420;53.150;6.370;2023-10-13T12:31:54;17.02;;;7.20;;
52508;SDS011;38420;53.150;6.370;2023-10-13T12:34:36;17.15;;;6.65;;
52508;SDS011;38420;53.150;6.370;2023-10-13T12:37:31;19.88;;;6.82;;
52508;SDS011;38420;53.150;6.370;2023-10-13T12:40:10;16.20;;;6.47;;
52508;SDS011;38420;53.150;6.370;2023-10-13T12:42:56;20.50;;;9.77;;
52508;SDS011;38420;53.150;6.370;2023-10-13T12:45:42;21.08;;;8.32;;
52508;SDS011;38420;53.150;6.370;2023-10-13T12:48:27;17.05;;;8.35;;
52508;SDS011;38420;53.150;6.370;2023-10-13T12:51:12;18.00;;;7.57;;
52508;SDS011;38420;53.150;6.370;2023-10-13T12:53:53;18.00;;;7.95;;
52508;SDS011;38420;53.150;6.370;2023-10-13T12:56:20;26.23;;;9.40;;
52508;SDS011;38420;53.150;6.370;2023-10-13T12:58:51;15.98;;;7.70;;
52508;SDS011;38420;53.150;6.370;2023-10-13T13:01:20;21.20;;;10.25;;
52508;SDS011;38420;53.150;6.370;2023-10-13T13:03:48;19.35;;;9.63;;
52508;SDS011;38420;53.150;6.370;2023-10-13T13:06:15;20.27;;;9.02;;
52508;SDS011;38420;53.150;6.370;2023-10-13T13:08:42;18.85;;;9.40;;
52508;SDS011;38420;53.150;6.370;2023-10-13T13:11:09;14.80;;;8.48;;
52508;SDS011;38420;53.150;6.370;2023-10-13T13:13:36;18.40;;;8.80;;
52508;SDS011;38420;53.150;6.370;2023-10-13T13:16:01;21.83;;;8.75;;
52508;SDS011;38420;53.150;6.370;2023-10-13T13:18:28;17.27;;;8.65;;
52508;SDS011;38420;53.150;6.370;2023-10-13T13:20:54;20.77;;;9.32;;
52508;SDS011;38420;53.150;6.370;2023-10-13T13:23:23;15.20;;;9.10;;
52508;SDS011;38420;53.150;6.370;2023-10-13T13:25:51;19.73;;;8.25;;
52508;SDS011;38420;53.150;6.370;2023-10-13T13:28:17;17.88;;;8.38;;
52508;SDS011;38420;53.150;6.370;2023-10-13T13:30:43;23.67;;;10.05;;
52508;SDS011;38420;53.150;6.370;2023-10-13T13:33:11;20.40;;;9.13;;
52508;SDS011;38420;53.150;6.370;2023-10-13T13:35:37;19.25;;;8.60;;
52508;SDS011;38420;53.150;6.370;2023-10-13T13:38:03;18.75;;;8.93;;
52508;SDS011;38420;53.150;6.370;2023-10-13T13:40:36;19.85;;;9.48;;
52508;SDS011;38420;53.150;6.370;2023-10-13T13:43:02;18.17;;;8.57;;
52508;SDS011;38420;53.150;6.370;2023-10-13T13:45:28;19.27;;;8.38;;
52508;SDS011;38420;53.150;6.370;2023-10-13T13:47:53;20.63;;;8.18;;
52508;SDS011;38420;53.150;6.370;2023-10-13T13:50:23;23.38;;;8.25;;
52508;SDS011;38420;53.150;6.370;2023-10-13T13:52:54;17.98;;;9.18;;
52508;SDS011;38420;53.150;6.370;2023-10-13T13:55:25;24.30;;;8.35;;
52508;SDS011;38420;53.150;6.370;2023-10-13T13:57:55;18.35;;;8.15;;
52508;SDS011;38420;53.150;6.370;2023-10-13T14:00:21;19.55;;;9.00;;
52508;SDS011;38420;53.150;6.370;2023-10-13T14:03:05;15.93;;;8.73;;
52508;SDS011;38420;53.150;6.370;2023-10-13T14:05:39;18.85;;;8.65;;
52508;SDS011;38420;53.150;6.370;2023-10-13T14:08:06;19.65;;;8.65;;
52508;SDS011;38420;53.150;6.370;2023-10-13T14:10:36;21.50;;;8.48;;
52508;SDS011;38420;53.150;6.370;2023-10-13T14:13:23;17.60;;;8.60;;
52508;SDS011;38420;53.150;6.370;2023-10-13T14:16:08;16.90;;;7.40;;
52508;SDS011;38420;53.150;6.370;2023-10-13T14:18:41;19.38;;;9.63;;
52508;SDS011;38420;53.150;6.370;2023-10-13T14:21:08;18.23;;;8.23;;
52508;SDS011;38420;53.150;6.370;2023-10-13T14:23:34;26.80;;;10.23;;
52508;SDS011;38420;53.150;6.370;2023-10-13T14:25:59;18.73;;;7.82;;
52508;SDS011;38420;53.150;6.370;2023-10-13T14:28:26;16.25;;;7.45;;
52508;SDS011;38420;53.150;6.370;2023-10-13T14:31:03;15.63;;;8.20;;
52508;SDS011;38420;53.150;6.370;2023-10-13T14:33:35;24.25;;;8.13;;
52508;SDS011;38420;53.150;6.370;2023-10-13T14:36:02;17.35;;;7.38;;
52508;SDS011;38420;53.150;6.370;2023-10-13T14:38:29;17.60;;;7.07;;
52508;SDS011;38420;53.150;6.370;2023-10-13T14:40:58;18.50;;;7.85;;
52508;SDS011;38420;53.150;6.370;2023-10-13T14:43:24;22.73;;;8.13;;
52508;SDS011;38420;53.150;6.370;2023-10-13T14:45:55;21.98;;;9.00;;
52508;SDS011;38420;53.150;6.370;2023-10-13T14:48:21;22.10;;;8.10;;
52508;SDS011;38420;53.150;6.370;2023-10-13T14:50:49;16.80;;;8.60;;
52508;SDS011;38420;53.150;6.370;2023-10-13T14:53:15;16.98;;;7.53;;
52508;SDS011;38420;53.150;6.370;2023-10-13T14:55:44;22.60;;;10.27;;
52508;SDS011;38420;53.150;6.370;2023-10-13T14:58:10;17.25;;;7.78;;
52508;SDS011;38420;53.150;6.370;2023-10-13T15:00:41;20.77;;;7.70;;
52508;SDS011;38420;53.150;6.370;2023-10-13T15:03:10;19.20;;;7.53;;
52508;SDS011;38420;53.150;6.370;2023-10-13T15:05:39;22.70;;;8.02;;
52508;SDS011;38420;53.150;6.370;2023-10-13T15:08:08;17.65;;;7.28;;
52508;SDS011;38420;53.150;6.370;2023-10-13T15:10:34;16.70;;;7.20;;
52508;SDS011;38420;53.150;6.370;2023-10-13T15:13:01;18.63;;;7.60;;
52508;SDS011;38420;53.150;6.370;2023-10-13T15:15:28;15.65;;;7.25;;
52508;SDS011;38420;53.150;6.370;2023-10-13T15:17:57;21.50;;;7.80;;
52508;SDS011;38420;53.150;6.370;2023-10-13T15:20:23;21.02;;;7.35;;
52508;SDS011;38420;53.150;6.370;2023-10-13T15:22:48;18.02;;;8.35;;
52508;SDS011;38420;53.150;6.370;2023-10-13T15:25:14;16.55;;;8.23;;
52508;SDS011;38420;53.150;6.370;2023-10-13T15:27:46;19.52;;;8.27;;
52508;SDS011;38420;53.150;6.370;2023-10-13T15:30:20;13.00;;;8.80;;